Time;durP1;ratioP1;P1;durP2;ratioP2;P2;SDS_P1;SDS_P2;PMS_P1;PMS_P2;Temp;Humidity;BMP_temperature;BMP_pressure;BME280_temperature;BME280_humidity;BME280_pressure;Samples;Min_cycle;Max_cycle;Signal;HPM_P1;HPM_P2
2023/08/09 00:02:08;;;;;;;0.32;0.32;;;10.20;99.90;;;;;;5156022;27;20079;-60
2023/08/09 00:04:33;;;;;;;0.40;0.40;;;10.30;99.90;;;;;;5155758;27;20126;-60
2023/08/09 00:06:59;;;;;;;0.30;0.30;;;10.40;99.90;;;;;;5155583;27;20047;-60
2023/08/09 00:09:25;;;;;;;0.93;0.93;;;10.50;99.90;;;;;;5155044;27;20109;-60
2023/08/09 00:11:51;;;;;;;0.20;0.20;;;10.00;99.90;;;;;;5156207;27;20121;-60
2023/08/09 00:14:17;;;;;;;0.70;0.50;;;10.40;99.90;;;;;;5156152;27;20558;-60
2023/08/09 00:16:42;;;;;;;0.45;0.45;;;10.00;99.90;;;;;;5156090;27;20088;-60
2023/08/09 00:19:09;;;;;;;0.30;0.30;;;10.50;99.90;;;;;;5155930;27;20049;-60
2023/08/09 00:21:36;;;;;;;0.20;0.20;;;10.90;99.90;;;;;;5155970;27;20056;-60
2023/08/09 00:24:03;;;;;;;1.25;0.50;;;10.30;99.90;;;;;;5155768;27;20091;-60
2023/08/09 00:26:29;;;;;;;0.30;0.30;;;10.20;99.90;;;;;;5155845;27;20058;-59
2023/08/09 00:28:55;;;;;;;0.20;0.20;;;10.30;99.90;;;;;;5155809;27;20169;-60
2023/08/09 00:31:21;;;;;;;0.20;0.20;;;10.20;99.90;;;;;;5156041;27;20144;-60
2023/08/09 00:33:47;;;;;;;0.20;0.20;;;10.40;99.90;;;;;;5155751;27;20039;-60
2023/08/09 00:36:12;;;;;;;0.22;0.22;;;10.30;99.90;;;;;;5155693;27;20042;-60
2023/08/09 00:38:38;;;;;;;0.20;0.20;;;10.00;99.90;;;;;;5155570;27;20084;-60
2023/08/09 00:41:04;;;;;;;0.30;0.30;;;10.10;99.90;;;;;;5155839;27;20167;-60
2023/08/09 00:43:30;;;;;;;2.42;1.10;;;10.30;99.90;;;;;;5155402;27;20129;-60
2023/08/09 00:45:56;;;;;;;0.30;0.30;;;10.20;99.90;;;;;;5155438;27;20053;-60
2023/08/09 00:48:22;;;;;;;0.63;0.50;;;9.80;99.90;;;;;;5155417;27;20042;-60
2023/08/09 00:50:48;;;;;;;0.20;0.20;;;10.00;99.90;;;;;;5155411;27;20052;-59
2023/08/09 00:53:15;;;;;;;0.30;0.30;;;10.10;99.90;;;;;;5155457;27;20043;-60
2023/08/09 00:55:41;;;;;;;0.20;0.20;;;9.90;99.90;;;;;;5155536;27;20061;-61
2023/08/09 00:58:06;;;;;;;0.65;0.65;;;10.20;99.90;;;;;;5155481;27;20047;-60
2023/08/09 01:00:32;;;;;;;0.20;0.20;;;10.20;99.90;;;;;;5155301;27;20085;-60
2023/08/09 01:02:59;;;;;;;0.20;0.20;;;10.30;99.90;;;;;;5155190;27;20569;-60
2023/08/09 01:05:32;;;;;;;0.30;0.30;;;10.10;99.90;;;;;;5154821;27;20474;-60
2023/08/09 01:08:29;;;;;;;0.30;0.30;;;10.00;99.90;;;;;;5136622;27;20057;-59
2023/08/09 01:11:22;;;;;;;0.20;0.20;;;8.60;99.90;;;;;;5112097;27;20379;-60
2023/08/09 01:13:52;;;;;;;0.20;0.20;;;9.70;99.90;;;;;;5154889;27;20045;-60
2023/08/09 01:16:20;;;;;;;0.30;0.30;;;9.50;99.90;;;;;;5154871;27;20138;-59
2023/08/09 01:18:47;;;;;;;0.30;0.30;;;9.90;99.90;;;;;;5154761;27;20510;-60
2023/08/09 01:21:17;;;;;;;0.20;0.20;;;9.70;99.90;;;;;;5135483;27;20046;-59
2023/08/09 01:23:45;;;;;;;0.32;0.32;;;9.90;99.90;;;;;;5154916;27;20161;-60
2023/08/09 01:26:11;;;;;;;0.20;0.20;;;9.80;99.90;;;;;;5154703;27;20046;-59
2023/08/09 01:28:36;;;;;;;;;;;9.90;99.90;;;;;;5155047;27;20482;-60
2023/08/09 01:31:03;;;;;;;0.30;0.30;;;9.70;99.90;;;;;;5154562;27;20005;-60
2023/08/09 01:33:29;;;;;;;0.20;0.20;;;10.00;99.90;;;;;;5154568;27;20050;-60
2023/08/09 01:36:15;;;;;;;0.30;0.30;;;9.40;99.90;;;;;;5154526;27;20051;-60
2023/08/09 01:38:51;;;;;;;0.20;0.20;;;9.90;99.90;;;;;;5154469;27;20105;-60
2023/08/09 01:41:17;;;;;;;0.20;0.20;;;9.70;99.90;;;;;;5154433;27;20095;-60
2023/08/09 01:43:44;;;;;;;0.30;0.30;;;9.90;99.90;;;;;;5154200;27;20051;-60
2023/08/09 01:46:10;;;;;;;0.20;0.20;;;9.90;99.90;;;;;;5154234;27;20102;-60
2023/08/09 01:48:36;;;;;;;0.20;0.20;;;9.70;99.90;;;;;;5154122;27;20094;-60
2023/08/09 01:51:02;;;;;;;0.22;0.22;;;9.40;99.90;;;;;;5154202;27;20054;-60
2023/08/09 01:53:28;;;;;;;;;;;9.80;99.90;;;;;;5154570;27;20046;-60
2023/08/09 01:55:54;;;;;;;0.20;0.20;;;9.90;99.90;;;;;;5154170;27;19926;-60
2023/08/09 01:58:20;;;;;;;0.30;0.30;;;9.50;99.90;;;;;;5154162;27;20038;-60
2023/08/09 02:00:46;;;;;;;0.22;0.22;;;9.60;99.90;;;;;;5154075;27;20057;-60
2023/08/09 02:03:12;;;;;;;0.20;0.20;;;9.80;99.90;;;;;;5154068;27;20126;-60
2023/08/09 02:05:38;;;;;;;0.30;0.30;;;9.70;99.90;;;;;;5135715;27;20050;-60
2023/08/09 02:08:05;;;;;;;0.35;0.35;;;9.60;99.90;;;;;;5153876;27;20063;-60
2023/08/09 02:10:31;;;;;;;0.43;0.43;;;9.80;99.90;;;;;;5153846;27;20126;-59
2023/08/09 02:12:57;;;;;;;0.28;0.28;;;9.90;99.90;;;;;;5153915;27;20183;-60
2023/08/09 02:15:23;;;;;;;;;;;9.90;99.90;;;;;;5154376;27;20038;-60
2023/08/09 02:17:49;;;;;;;0.30;0.30;;;9.20;99.90;;;;;;5135613;27;19927;-60
2023/08/09 02:20:15;;;;;;;0.35;0.35;;;9.50;99.90;;;;;;5153800;27;20043;-60
2023/08/09 02:22:41;;;;;;;;;;;10.00;99.90;;;;;;5153841;27;20471;-60
2023/08/09 02:25:13;;;;;;;0.20;0.20;;;10.10;99.90;;;;;;5153770;27;19922;-60
2023/08/09 02:27:39;;;;;;;0.30;0.30;;;9.60;99.90;;;;;;5153827;27;20372;-59
2023/08/09 02:30:06;;;;;;;1.25;1.05;;;9.60;99.90;;;;;;5153668;27;20482;-60
2023/08/09 02:32:34;;;;;;;0.28;0.28;;;9.40;99.90;;;;;;5137947;27;20048;-60
2023/08/09 02:35:00;;;;;;;0.30;0.30;;;9.40;99.90;;;;;;5158069;27;20126;-60
2023/08/09 02:37:26;;;;;;;0.40;0.40;;;9.70;99.90;;;;;;5158024;27;20122;-60
2023/08/09 02:39:52;;;;;;;0.20;0.20;;;9.40;99.90;;;;;;5157925;27;20405;-60
2023/08/09 02:42:18;;;;;;;0.35;0.35;;;9.30;99.90;;;;;;5157911;27;20121;-60
2023/08/09 02:44:45;;;;;;;0.50;0.50;;;9.50;99.90;;;;;;5157708;27;20080;-60
2023/08/09 02:47:11;;;;;;;0.22;0.22;;;9.20;99.90;;;;;;5157815;27;20045;-60
2023/08/09 02:49:36;;;;;;;0.85;0.85;;;9.50;99.90;;;;;;5157797;27;20827;-60
2023/08/09 02:52:02;;;;;;;0.30;0.30;;;9.40;99.90;;;;;;5157718;27;20402;-60
2023/08/09 02:54:28;;;;;;;0.20;0.20;;;9.60;99.90;;;;;;5157694;27;20087;-60
2023/08/09 02:56:53;;;;;;;0.20;0.20;;;9.40;99.90;;;;;;5157532;27;20050;-60
2023/08/09 02:59:19;;;;;;;0.60;0.60;;;9.40;99.90;;;;;;5157591;27;20042;-60
2023/08/09 03:01:45;;;;;;;0.50;0.50;;;9.20;99.90;;;;;;5157211;27;20043;-60
2023/08/09 03:04:11;;;;;;;0.30;0.30;;;9.50;99.90;;;;;;5157463;27;20146;-60
2023/08/09 03:06:36;;;;;;;0.20;0.20;;;9.30;99.90;;;;;;5157434;27;20053;-60
2023/08/09 03:09:03;;;;;;;0.30;0.30;;;9.20;99.90;;;;;;5157387;27;20511;-60
2023/08/09 03:11:29;;;;;;;0.20;0.20;;;9.30;99.90;;;;;;5157325;27;20552;-59
2023/08/09 03:13:55;;;;;;;0.30;0.30;;;8.90;99.90;;;;;;5138871;27;20051;-60
2023/08/09 03:16:22;;;;;;;0.20;0.20;;;9.00;99.90;;;;;;5157292;27;20095;-60
2023/08/09 03:18:48;;;;;;;0.30;0.30;;;9.20;99.90;;;;;;5157074;27;20090;-60
2023/08/09 03:21:14;;;;;;;0.45;0.40;;;9.10;99.90;;;;;;5157134;27;20077;-60
2023/08/09 03:23:40;;;;;;;0.20;0.20;;;8.90;99.90;;;;;;5157016;27;20049;-60
2023/08/09 03:26:06;;;;;;;;;;;8.90;99.90;;;;;;5157450;27;20086;-59
2023/08/09 03:28:32;;;;;;;0.30;0.30;;;9.00;99.90;;;;;;5156725;27;19974;-60
2023/08/09 03:30:58;;;;;;;0.38;0.38;;;9.00;99.90;;;;;;5156970;27;20107;-60
2023/08/09 03:33:25;;;;;;;0.30;0.30;;;9.10;99.90;;;;;;5138331;27;20134;-60
2023/08/09 03:35:51;;;;;;;0.20;0.20;;;9.30;99.90;;;;;;5156818;27;20158;-60
2023/08/09 03:38:17;;;;;;;0.20;0.20;;;8.70;99.90;;;;;;5138377;27;20494;-60
2023/08/09 03:40:43;;;;;;;0.20;0.20;;;9.30;99.90;;;;;;5156790;27;20336;-60
2023/08/09 03:43:09;;;;;;;0.30;0.30;;;8.80;99.90;;;;;;5155627;27;20111;-60
2023/08/09 03:45:34;;;;;;;0.30;0.30;;;9.30;99.90;;;;;;5156636;27;20478;-60
2023/08/09 03:48:00;;;;;;;0.30;0.30;;;9.50;99.90;;;;;;5156653;27;20061;-60
2023/08/09 03:50:26;;;;;;;0.30;0.30;;;9.30;99.90;;;;;;5156539;27;20046;-60
2023/08/09 03:52:52;;;;;;;0.28;0.28;;;9.00;99.90;;;;;;5156616;27;20496;-60
2023/08/09 03:55:18;;;;;;;;;;;8.80;99.90;;;;;;5156933;27;20046;-59
2023/08/09 03:57:44;;;;;;;0.20;0.20;;;8.80;99.90;;;;;;5156352;27;20397;-60
2023/08/09 04:00:17;;;;;;;0.20;0.20;;;8.80;99.90;;;;;;5156479;27;20043;-60
2023/08/09 04:02:47;;;;;;;0.30;0.30;;;9.20;99.90;;;;;;5156807;27;20058;-60
2023/08/09 04:05:15;;;;;;;0.20;0.20;;;9.40;99.90;;;;;;5156256;27;20509;-60
2023/08/09 04:07:42;;;;;;;0.50;0.50;;;8.70;99.90;;;;;;5155935;27;20091;-59
2023/08/09 04:10:08;;;;;;;0.22;0.22;;;8.90;99.90;;;;;;5156301;27;20061;-60
2023/08/09 04:12:34;;;;;;;;;;;9.00;99.90;;;;;;5156609;27;20508;-60
2023/08/09 04:15:00;;;;;;;0.30;0.30;;;9.20;99.90;;;;;;5156255;27;19919;-59
2023/08/09 04:17:26;;;;;;;0.20;0.20;;;9.00;99.90;;;;;;5156400;27;20046;-60
2023/08/09 04:19:52;;;;;;;0.25;0.25;;;9.00;99.90;;;;;;5156340;27;20103;-60
2023/08/09 04:22:18;;;;;;;0.30;0.30;;;8.70;99.90;;;;;;5156444;27;20116;-62
2023/08/09 04:24:44;;;;;;;0.30;0.30;;;8.60;99.90;;;;;;5156100;27;20039;-60
2023/08/09 04:27:10;;;;;;;0.22;0.22;;;8.60;99.90;;;;;;5137141;27;20081;-60
2023/08/09 04:29:35;;;;;;;0.30;0.30;;;9.00;99.90;;;;;;5155818;27;20051;-60
2023/08/09 04:32:01;;;;;;;0.30;0.30;;;9.10;99.90;;;;;;5155991;27;20054;-59
2023/08/09 04:34:27;;;;;;;0.20;0.20;;;9.20;99.90;;;;;;5155882;27;20490;-60
2023/08/09 04:36:52;;;;;;;0.30;0.30;;;9.40;99.90;;;;;;5155763;27;20526;-59
2023/08/09 04:39:23;;;;;;;0.20;0.20;;;8.80;99.90;;;;;;5155692;27;20065;-60
2023/08/09 04:41:49;;;;;;;0.30;0.30;;;8.80;99.90;;;;;;5155287;27;20552;-60
2023/08/09 04:44:15;;;;;;;0.20;0.20;;;9.20;99.90;;;;;;5155468;27;20082;-60
2023/08/09 04:46:41;;;;;;;0.20;0.20;;;8.90;99.90;;;;;;5155644;27;20054;-60
2023/08/09 04:49:07;;;;;;;0.22;0.22;;;9.00;99.90;;;;;;5155441;27;20038;-60
2023/08/09 04:51:32;;;;;;;0.30;0.30;;;8.60;99.90;;;;;;5155376;27;20067;-60
2023/08/09 04:53:58;;;;;;;0.20;0.20;;;9.20;99.90;;;;;;5155240;27;20098;-60
2023/08/09 04:56:24;;;;;;;0.20;0.20;;;9.50;99.90;;;;;;5155285;27;20054;-60
2023/08/09 04:58:50;;;;;;;0.57;0.40;;;9.50;99.90;;;;;;5155171;27;20046;-60
2023/08/09 05:01:15;;;;;;;0.20;0.20;;;9.40;99.90;;;;;;5136872;27;20043;-60
2023/08/09 05:03:41;;;;;;;0.30;0.30;;;9.40;99.90;;;;;;5155047;27;20084;-60
2023/08/09 05:06:08;;;;;;;0.20;0.20;;;9.90;99.90;;;;;;5155071;27;20051;-60
2023/08/09 05:08:34;;;;;;;0.40;0.40;;;9.60;99.90;;;;;;5154982;27;20426;-60
2023/08/09 05:10:59;;;;;;;0.30;0.30;;;9.70;99.90;;;;;;5154973;27;20078;-60
2023/08/09 05:13:25;;;;;;;0.30;0.30;;;10.00;99.90;;;;;;5155293;27;20047;-60
2023/08/09 05:15:51;;;;;;;0.20;0.20;;;9.90;99.90;;;;;;5154982;27;20050;-60
2023/08/09 05:18:17;;;;;;;0.28;0.28;;;9.90;99.90;;;;;;5154933;27;20049;-60
2023/08/09 05:20:43;;;;;;;0.20;0.20;;;10.10;99.90;;;;;;5154788;27;20043;-60
2023/08/09 05:23:09;;;;;;;0.30;0.30;;;10.20;99.90;;;;;;5154720;27;20042;-60
2023/08/09 05:25:34;;;;;;;0.20;0.20;;;10.10;99.90;;;;;;5154587;27;20089;-60
2023/08/09 05:28:00;;;;;;;0.30;0.30;;;9.90;99.90;;;;;;5154725;27;20074;-60
2023/08/09 05:30:26;;;;;;;0.30;0.30;;;10.60;99.90;;;;;;5154603;27;20050;-60
2023/08/09 05:32:51;;;;;;;0.20;0.20;;;10.30;99.90;;;;;;5154510;27;20039;-60
2023/08/09 05:35:17;;;;;;;0.38;0.38;;;10.80;99.90;;;;;;5154448;27;20054;-59
2023/08/09 05:37:43;;;;;;;0.40;0.40;;;11.10;99.90;;;;;;5154499;27;20101;-60
2023/08/09 05:40:10;;;;;;;0.20;0.20;;;11.00;99.90;;;;;;5154774;27;20184;-60
2023/08/09 05:42:36;;;;;;;0.20;0.20;;;11.30;99.90;;;;;;5154414;27;20054;-60
2023/08/09 05:45:03;;;;;;;0.20;0.20;;;11.40;99.90;;;;;;5154037;27;20541;-60
2023/08/09 05:47:29;;;;;;;0.25;0.25;;;11.60;99.90;;;;;;5154395;27;20050;-61
2023/08/09 05:49:55;;;;;;;0.30;0.30;;;11.60;99.90;;;;;;5154380;27;20046;-60
2023/08/09 05:52:20;;;;;;;0.20;0.20;;;11.30;99.90;;;;;;5154338;27;20798;-60
2023/08/09 05:54:46;;;;;;;2.80;0.57;;;11.70;99.90;;;;;;5154254;27;20435;-60
2023/08/09 05:57:12;;;;;;;0.20;0.20;;;12.20;99.90;;;;;;5154174;27;20402;-60
2023/08/09 05:59:39;;;;;;;0.30;0.30;;;12.30;99.90;;;;;;5154138;27;20053;-60
2023/08/09 06:02:08;;;;;;;0.20;0.20;;;12.00;99.90;;;;;;5154112;27;20051;-60
2023/08/09 06:04:34;;;;;;;0.20;0.20;;;12.50;99.90;;;;;;5139141;27;20426;-63
2023/08/09 06:07:00;;;;;;;;;;;12.20;99.90;;;;;;5147908;27;20054;-60
2023/08/09 06:09:25;;;;;;;0.20;0.20;;;12.60;99.90;;;;;;5152553;27;20300;-60
2023/08/09 06:11:51;;;;;;;0.40;0.40;;;12.90;99.90;;;;;;5153399;27;20126;-60
2023/08/09 06:14:17;;;;;;;0.20;0.20;;;12.70;99.90;;;;;;5153518;27;20044;-60
2023/08/09 06:16:45;;;;;;;0.20;0.20;;;12.80;99.90;;;;;;5153369;27;20054;-60
2023/08/09 06:19:12;;;;;;;1.98;0.95;;;13.00;99.90;;;;;;5153300;27;20043;-61
2023/08/09 06:21:38;;;;;;;0.30;0.30;;;13.10;99.90;;;;;;5153051;27;20379;-60
2023/08/09 06:24:05;;;;;;;0.20;0.20;;;13.10;99.90;;;;;;5134932;27;20043;-60
2023/08/09 06:26:32;;;;;;;0.40;0.40;;;13.70;99.90;;;;;;5153261;27;20490;-60
2023/08/09 06:28:58;;;;;;;0.20;0.20;;;13.50;99.90;;;;;;5153185;27;20090;-60
2023/08/09 06:31:24;;;;;;;0.30;0.30;;;13.70;99.90;;;;;;5153159;27;20521;-61
2023/08/09 06:33:50;;;;;;;1.55;0.30;;;13.90;99.90;;;;;;5153486;27;20039;-61
2023/08/09 06:36:15;;;;;;;0.30;0.30;;;14.00;99.90;;;;;;5134077;27;20038;-61
2023/08/09 06:38:41;;;;;;;0.75;0.40;;;14.30;99.90;;;;;;5153435;27;20050;-60
2023/08/09 06:41:07;;;;;;;0.22;0.22;;;14.10;99.90;;;;;;5153319;27;20054;-60
2023/08/09 06:43:33;;;;;;;0.20;0.20;;;14.30;99.90;;;;;;5152700;27;20138;-61
2023/08/09 06:46:00;;;;;;;0.20;0.20;;;14.30;99.90;;;;;;5153350;27;20061;-60
2023/08/09 06:48:29;;;;;;;0.35;0.35;;;14.60;99.90;;;;;;5153212;27;20051;-60
2023/08/09 06:50:58;;;;;;;0.25;0.25;;;14.50;99.90;;;;;;5152075;27;20439;-61
2023/08/09 06:53:24;;;;;;;0.20;0.20;;;15.00;99.90;;;;;;5153465;27;20500;-60
2023/08/09 06:55:51;;;;;;;0.30;0.30;;;14.90;99.90;;;;;;5153113;27;20089;-61
2023/08/09 06:58:16;;;;;;;0.40;0.40;;;14.70;99.90;;;;;;5152554;27;20517;-61
2023/08/09 07:00:45;;;;;;;0.20;0.20;;;15.00;99.90;;;;;;5134621;27;20043;-60
2023/08/09 07:03:10;;;;;;;0.40;0.40;;;15.00;99.90;;;;;;5153273;27;20046;-61
2023/08/09 07:05:36;;;;;;;0.20;0.20;;;14.90;99.90;;;;;;5152306;27;20049;-61
2023/08/09 07:08:02;;;;;;;0.20;0.20;;;15.30;99.90;;;;;;5153332;27;20619;-60
2023/08/09 07:10:28;;;;;;;;;;;15.40;99.90;;;;;;5153426;27;20055;-60
2023/08/09 07:12:53;;;;;;;0.20;0.20;;;16.00;99.90;;;;;;5152687;27;19969;-60
2023/08/09 07:15:19;;;;;;;;;;;15.90;99.90;;;;;;5153398;27;20118;-61
2023/08/09 07:17:46;;;;;;;0.22;0.22;;;15.80;99.90;;;;;;5154115;27;19934;-62
2023/08/09 07:20:14;;;;;;;0.10;0.10;;;16.00;99.90;;;;;;5155088;27;20046;-60
2023/08/09 07:22:44;;;;;;;1.55;0.63;;;16.00;99.90;;;;;;5156812;27;20150;-60
2023/08/09 07:25:10;;;;;;;0.57;0.30;;;16.10;99.90;;;;;;5151962;27;20038;-60
2023/08/09 07:27:45;;;;;;;0.30;0.30;;;15.10;99.90;;;;;;5147481;27;20114;-61
2023/08/09 07:30:13;;;;;;;3.42;1.00;;;16.40;99.90;;;;;;5138015;27;20441;-60
2023/08/09 07:32:40;;;;;;;1.55;0.57;;;16.10;99.90;;;;;;5138137;27;20433;-59
2023/08/09 07:35:06;;;;;;;0.30;0.22;;;16.30;99.90;;;;;;5156354;27;20039;-60
2023/08/09 07:37:33;;;;;;;0.90;0.85;;;16.40;99.90;;;;;;5156525;27;20043;-60
2023/08/09 07:39:59;;;;;;;0.17;0.17;;;16.60;99.90;;;;;;5156574;27;20115;-61
2023/08/09 07:42:25;;;;;;;0.20;0.20;;;16.90;99.90;;;;;;5156059;27;20059;-59
2023/08/09 07:44:51;;;;;;;;;;;16.80;99.90;;;;;;5156753;27;20045;-61
2023/08/09 07:47:17;;;;;;;0.17;0.17;;;16.80;99.90;;;;;;5156408;27;19973;-59
2023/08/09 07:49:42;;;;;;;0.32;0.32;;;16.80;99.90;;;;;;5137960;27;20074;-60
2023/08/09 07:52:08;;;;;;;;;;;17.10;99.90;;;;;;5157060;27;20047;-60
2023/08/09 07:54:34;;;;;;;0.25;0.25;;;17.40;99.90;;;;;;5156467;27;20002;-61
2023/08/09 07:56:59;;;;;;;;;;;17.40;99.90;;;;;;5156262;27;20039;-60
2023/08/09 07:59:25;;;;;;;0.30;0.30;;;17.30;99.90;;;;;;5156167;27;20614;-60
2023/08/09 08:01:51;;;;;;;;;;;17.30;99.90;;;;;;5156331;27;20091;-61
2023/08/09 08:04:16;;;;;;;0.20;0.20;;;17.20;99.90;;;;;;5156069;27;19918;-61
2023/08/09 08:06:42;;;;;;;;;;;17.60;99.90;;;;;;5156498;27;20456;-62
2023/08/09 08:09:12;;;;;;;0.28;0.20;;;17.40;99.90;;;;;;5155451;27;19954;-61
2023/08/09 08:11:39;;;;;;;0.10;0.10;;;17.50;99.90;;;;;;5155843;27;20046;-60
2023/08/09 08:14:06;;;;;;;0.20;0.15;;;17.60;99.90;;;;;;5155862;27;20035;-61
2023/08/09 08:16:32;;;;;;;0.20;0.20;;;17.60;99.90;;;;;;5155929;27;20418;-61
2023/08/09 08:18:58;;;;;;;;;;;18.20;99.90;;;;;;5143595;27;20043;-59
2023/08/09 08:21:23;;;;;;;0.32;0.17;;;17.80;99.90;;;;;;5133713;27;19959;-60
2023/08/09 08:23:49;;;;;;;;;;;18.10;99.90;;;;;;5134803;27;20100;-60
2023/08/09 08:26:15;;;;;;;0.30;0.30;;;17.80;99.90;;;;;;5134686;27;19954;-60
2023/08/09 08:28:40;;;;;;;;;;;18.10;99.90;;;;;;5135594;27;20485;-60
2023/08/09 08:31:07;;;;;;;0.10;0.10;;;17.90;99.90;;;;;;5134460;27;19961;-61
2023/08/09 08:33:34;;;;;;;0.10;0.10;;;18.30;99.90;;;;;;5135187;27;20043;-60
2023/08/09 08:36:00;;;;;;;0.10;0.10;;;18.10;99.90;;;;;;5134994;27;20095;-59
2023/08/09 08:38:26;;;;;;;0.10;0.10;;;18.20;99.90;;;;;;5134960;27;20047;-60
2023/08/09 08:40:54;;;;;;;0.10;0.10;;;18.40;99.90;;;;;;5135027;27;20066;-59
2023/08/09 08:43:20;;;;;;;0.10;0.10;;;18.20;99.90;;;;;;5134929;27;20117;-60
2023/08/09 08:45:49;;;;;;;;;;;18.40;99.90;;;;;;5135214;27;20051;-60
2023/08/09 08:48:16;;;;;;;0.13;0.13;;;18.20;99.90;;;;;;5134886;27;19920;-60
2023/08/09 08:50:44;;;;;;;0.10;0.10;;;18.20;99.90;;;;;;5134707;27;20125;-59
2023/08/09 08:53:11;;;;;;;0.10;0.10;;;18.10;99.90;;;;;;5134724;27;20051;-60
2023/08/09 08:55:37;;;;;;;0.50;0.35;;;18.30;99.90;;;;;;5134697;27;20043;-60
2023/08/09 08:58:03;;;;;;;0.52;0.52;;;17.70;99.90;;;;;;5116263;27;20043;-61
2023/08/09 09:00:29;;;;;;;0.20;0.20;;;18.00;99.90;;;;;;5124097;27;20269;-63
2023/08/09 09:02:56;;;;;;;0.20;0.20;;;18.60;99.90;;;;;;5153068;27;20482;-60
2023/08/09 09:05:23;;;;;;;3.83;0.30;;;18.50;99.90;;;;;;5153803;27;20039;-60
2023/08/09 09:07:52;;;;;;;0.20;0.20;;;19.10;99.90;;;;;;5153927;27;20129;-60
2023/08/09 09:10:19;;;;;;;0.20;0.20;;;18.60;99.90;;;;;;5153982;27;20394;-60
2023/08/09 09:12:45;;;;;;;3.40;0.68;;;18.60;99.90;;;;;;5154536;27;20045;-60
2023/08/09 09:15:14;;;;;;;0.30;0.30;;;18.90;99.90;;;;;;5153424;27;20428;-60
2023/08/09 09:17:42;;;;;;;0.10;0.10;;;18.90;99.90;;;;;;5154286;27;20062;-60
2023/08/09 09:20:53;;;;;;;0.15;0.15;;;18.80;99.90;;;;;;5135690;27;20481;-60
2023/08/09 09:23:24;;;;;;;0.28;0.28;;;18.10;99.90;;;;;;5148755;27;20042;-60
2023/08/09 09:26:01;;;;;;;0.10;0.10;;;18.70;99.90;;;;;;5145023;27;20565;-60
2023/08/09 09:28:27;;;;;;;0.10;0.10;;;18.70;99.90;;;;;;5153356;27;20063;-61
2023/08/09 09:30:58;;;;;;;0.10;0.10;;;19.10;99.90;;;;;;5153584;27;20043;-61
2023/08/09 09:33:35;;;;;;;0.10;0.10;;;19.10;99.90;;;;;;5153868;27;20504;-61
2023/08/09 09:36:01;;;;;;;;;;;19.20;99.90;;;;;;5149885;27;20043;-60
2023/08/09 09:38:27;;;;;;;0.30;0.30;;;19.00;99.90;;;;;;5152442;27;19926;-60
2023/08/09 09:40:53;;;;;;;0.20;0.20;;;19.40;99.90;;;;;;5152102;27;20133;-60
2023/08/09 09:43:19;;;;;;;0.10;0.10;;;19.20;99.90;;;;;;5153150;27;20190;-60
2023/08/09 09:45:45;;;;;;;0.20;0.20;;;18.90;99.90;;;;;;5153942;27;20054;-60
2023/08/09 09:48:18;;;;;;;0.10;0.10;;;19.40;99.90;;;;;;5139636;27;20083;-60
2023/08/09 09:50:44;;;;;;;0.10;0.10;;;19.20;99.90;;;;;;5142623;27;20148;-60
2023/08/09 09:53:13;;;;;;;0.80;0.80;;;18.80;99.90;;;;;;5134791;27;20126;-61
2023/08/09 09:55:40;;;;;;;0.45;0.38;;;19.60;99.90;;;;;;5152007;27;20046;-60
2023/08/09 09:58:06;;;;;;;1.23;0.40;;;19.00;99.90;;;;;;5153605;27;20050;-60
2023/08/09 10:00:33;;;;;;;1.20;0.40;;;19.60;99.90;;;;;;5153634;27;20486;-60
2023/08/09 10:03:04;;;;;;;0.10;0.10;;;20.00;99.90;;;;;;5151775;27;20051;-61
2023/08/09 10:05:36;;;;;;;0.32;0.30;;;19.40;99.90;;;;;;5153255;27;20419;-60
2023/08/09 10:08:08;;;;;;;0.63;0.63;;;19.50;99.90;;;;;;5153461;27;20039;-60
2023/08/09 10:10:36;;;;;;;1.02;0.25;;;18.70;99.90;;;;;;5152914;27;20142;-60
2023/08/09 10:13:05;;;;;;;0.03;0.03;;;19.20;99.90;;;;;;5152805;27;20043;-61
2023/08/09 10:15:56;;;;;;;0.10;0.10;;;19.20;99.90;;;;;;5153421;27;20039;-61
2023/08/09 10:18:31;;;;;;;0.60;0.60;;;19.70;99.90;;;;;;5140622;27;20051;-61
2023/08/09 10:21:00;;;;;;;0.30;0.30;;;19.70;99.90;;;;;;5153390;27;20121;-61
2023/08/09 10:23:31;;;;;;;0.38;0.20;;;19.50;99.90;;;;;;5134483;27;20093;-61
2023/08/09 10:25:57;;;;;;;0.10;0.10;;;19.30;99.90;;;;;;5152917;27;20119;-61
2023/08/09 10:28:39;;;;;;;0.30;0.30;;;19.80;99.90;;;;;;5134599;27;20042;-61
2023/08/09 10:31:04;;;;;;;0.10;0.10;;;19.30;99.90;;;;;;5147653;27;20058;-61
2023/08/09 10:33:31;;;;;;;0.20;0.20;;;18.80;99.90;;;;;;5152295;27;20039;-61
2023/08/09 10:35:57;;;;;;;0.10;0.10;;;19.20;99.90;;;;;;5152257;27;20401;-60
2023/08/09 10:38:32;;;;;;;0.20;0.20;;;19.50;99.90;;;;;;5153157;27;20051;-61
2023/08/09 10:40:59;;;;;;;0.30;0.30;;;19.70;99.90;;;;;;5139665;27;20057;-63
2023/08/09 10:43:29;;;;;;;0.10;0.10;;;20.00;99.90;;;;;;5149413;27;20406;-61
2023/08/09 10:45:56;;;;;;;1.35;1.25;;;20.00;99.90;;;;;;5152467;27;20169;-60
2023/08/09 10:48:27;;;;;;;0.20;0.20;;;20.00;99.90;;;;;;5152708;27;20424;-61
2023/08/09 10:51:08;;;;;;;0.10;0.10;;;20.10;99.90;;;;;;5152733;27;20043;-61
2023/08/09 10:53:58;;;;;;;0.00;0.00;;;20.20;99.90;;;;;;5155742;27;20050;-61
2023/08/09 10:56:30;;;;;;;5.28;0.70;;;19.60;99.90;;;;;;5156118;27;20091;-61
2023/08/09 10:59:03;;;;;;;3.17;0.45;;;19.80;99.90;;;;;;5156706;27;20506;-62
2023/08/09 11:01:30;;;;;;;0.10;0.10;;;19.70;99.90;;;;;;5156787;27;20498;-60
2023/08/09 11:03:57;;;;;;;0.20;0.20;;;20.00;99.90;;;;;;5156278;27;20089;-61
2023/08/09 11:06:38;;;;;;;0.35;0.13;;;20.20;99.90;;;;;;5156968;27;20057;-62
2023/08/09 11:09:07;;;;;;;0.10;0.10;;;20.40;99.90;;;;;;5156619;27;20117;-60
2023/08/09 11:11:34;;;;;;;0.10;0.10;;;20.20;99.90;;;;;;5155768;27;20104;-62
2023/08/09 11:14:01;;;;;;;0.20;0.20;;;20.70;99.90;;;;;;5156865;27;20046;-61
2023/08/09 11:16:27;;;;;;;0.25;0.20;;;19.90;99.90;;;;;;5156580;27;20050;-61
2023/08/09 11:19:04;;;;;;;0.10;0.10;;;20.20;99.90;;;;;;5155831;27;20561;-61
2023/08/09 11:21:47;;;;;;;0.17;0.17;;;20.50;99.90;;;;;;5156284;27;20469;-62
2023/08/09 11:24:15;;;;;;;0.10;0.10;;;20.40;99.90;;;;;;5156689;27;20053;-62
2023/08/09 11:26:52;;;;;;;0.28;0.28;;;20.30;99.90;;;;;;5155552;27;20080;-61
2023/08/09 11:29:18;;;;;;;;;;;20.60;99.90;;;;;;5157009;27;20049;-61
2023/08/09 11:31:46;;;;;;;1.10;1.00;;;20.30;99.90;;;;;;5156495;27;19923;-62
2023/08/09 11:34:14;;;;;;;0.10;0.10;;;20.40;99.90;;;;;;5156072;27;20057;-61
2023/08/09 11:36:40;;;;;;;0.30;0.30;;;20.30;99.90;;;;;;5156502;27;20043;-61
2023/08/09 11:39:08;;;;;;;0.10;0.10;;;20.80;99.90;;;;;;5138238;27;20424;-62
2023/08/09 11:41:44;;;;;;;0.00;0.00;;;20.40;99.90;;;;;;5155323;27;20050;-60
2023/08/09 11:44:13;;;;;;;0.32;0.30;;;20.50;99.90;;;;;;5156187;27;20039;-61
2023/08/09 11:46:42;;;;;;;0.20;0.20;;;21.00;99.90;;;;;;5156181;27;20057;-62
2023/08/09 11:49:08;;;;;;;0.10;0.10;;;20.80;99.90;;;;;;5137089;27;20090;-60
2023/08/09 11:51:35;;;;;;;0.10;0.10;;;21.10;99.90;;;;;;5156007;27;20039;-60
2023/08/09 11:54:02;;;;;;;0.10;0.10;;;20.80;99.90;;;;;;5156210;27;20082;-60
2023/08/09 11:56:32;;;;;;;0.28;0.17;;;20.70;99.90;;;;;;5154965;27;20510;-60
2023/08/09 11:59:00;;;;;;;0.70;0.35;;;20.90;99.90;;;;;;5155970;27;20046;-61
2023/08/09 12:01:29;;;;;;;0.20;0.20;;;21.40;99.90;;;;;;5155634;27;20046;-61
2023/08/09 12:03:57;;;;;;;1.90;1.77;;;21.00;99.90;;;;;;5133790;27;20082;-60
2023/08/09 12:06:43;;;;;;;1.23;1.20;;;21.30;99.90;;;;;;5150482;27;20125;-61
2023/08/09 12:09:30;;;;;;;0.10;0.10;;;21.10;99.90;;;;;;5156139;27;20439;-60
2023/08/09 12:12:16;;;;;;;0.10;0.10;;;20.80;99.90;;;;;;5135568;27;20127;-60
2023/08/09 12:14:43;;;;;;;0.85;0.85;;;20.70;99.90;;;;;;5134946;27;20043;-60
2023/08/09 12:17:27;;;;;;;0.57;0.55;;;20.30;99.90;;;;;;5135446;27;20059;-61
2023/08/09 12:19:58;;;;;;;0.75;0.55;;;20.50;99.90;;;;;;5135490;27;20075;-60
2023/08/09 12:22:25;;;;;;;0.28;0.28;;;20.20;99.90;;;;;;5135092;27;20379;-61
2023/08/09 12:24:51;;;;;;;0.57;0.10;;;20.80;99.90;;;;;;5135178;27;20039;-60
2023/08/09 12:27:19;;;;;;;2.17;1.08;;;20.60;99.90;;;;;;5135005;27;20047;-60
2023/08/09 12:29:48;;;;;;;1.15;0.40;;;21.10;99.90;;;;;;5134959;27;20047;-60
2023/08/09 12:32:14;;;;;;;0.40;0.38;;;20.60;99.90;;;;;;5134903;27;20501;-60
2023/08/09 12:34:39;;;;;;;0.57;0.43;;;22.40;99.90;;;;;;5134939;27;20047;-62
2023/08/09 12:37:05;;;;;;;0.10;0.10;;;20.70;99.90;;;;;;5134794;27;20126;-60
2023/08/09 12:39:32;;;;;;;0.30;0.30;;;20.80;99.90;;;;;;5134795;27;20055;-60
2023/08/09 12:41:59;;;;;;;0.20;0.20;;;20.90;99.90;;;;;;5134680;27;20051;-60
2023/08/09 12:44:25;;;;;;;0.17;0.10;;;20.10;99.90;;;;;;5134625;27;20043;-60
2023/08/09 12:46:50;;;;;;;0.95;0.32;;;20.60;99.90;;;;;;5134589;27;20047;-60
2023/08/09 12:49:16;;;;;;;0.45;0.30;;;20.70;99.90;;;;;;5134557;27;20047;-60
2023/08/09 12:51:42;;;;;;;0.43;0.43;;;20.40;99.90;;;;;;5134472;27;20082;-60
2023/08/09 12:54:09;;;;;;;0.10;0.10;;;20.10;99.90;;;;;;5134411;27;20037;-60
2023/08/09 12:56:36;;;;;;;0.10;0.10;;;19.90;99.90;;;;;;5134408;27;20047;-61
2023/08/09 12:59:02;;;;;;;0.40;0.40;;;20.10;99.90;;;;;;5134341;27;20403;-60